createdAt,value
2023-05-05T00:00:01.585Z,95428.00
2023-05-05T00:01:01.581Z,95430.00
2023-05-05T00:02:01.667Z,95430.00
2023-05-05T00:03:01.639Z,95428.00
2023-05-05T00:04:01.645Z,95428.00
2023-05-05T00:05:01.555Z,95426.00
2023-05-05T00:06:01.543Z,95426.00
2023-05-05T00:07:01.522Z,95424.00
2023-05-05T00:08:01.529Z,95422.00
2023-05-05T00:09:01.511Z,95422.00
2023-05-05T00:10:01.541Z,95424.00
2023-05-05T00:11:01.496Z,95426.00
2023-05-05T00:12:01.535Z,95422.00
2023-05-05T00:13:01.542Z,95426.00
2023-05-05T00:14:01.467Z,95424.00
2023-05-05T00:15:01.503Z,95424.00
2023-05-05T00:16:01.458Z,95424.00
2023-05-05T00:17:01.501Z,95424.00
2023-05-05T00:18:01.507Z,95424.00
2023-05-05T00:19:01.439Z,95420.00
2023-05-05T00:20:01.515Z,95424.00
2023-05-05T00:21:01.482Z,95424.00
2023-05-05T00:22:01.430Z,95424.00
2023-05-05T00:23:01.698Z,95422.00
2023-05-05T00:24:01.412Z,95422.00
2023-05-05T00:25:01.421Z,95426.00
2023-05-05T00:26:01.400Z,95422.00
2023-05-05T00:27:01.417Z,95422.00
2023-05-05T00:28:01.405Z,95422.00
2023-05-05T00:29:01.373Z,95426.00
2023-05-05T00:30:01.380Z,95424.00
2023-05-05T00:31:01.413Z,95424.00
2023-05-05T00:32:01.362Z,95426.00
2023-05-05T00:33:01.407Z,95424.00
2023-05-05T00:34:01.374Z,95424.00
2023-05-05T00:35:01.341Z,95424.00
2023-05-05T00:36:01.345Z,95426.00
2023-05-05T00:37:01.326Z,95424.00
2023-05-05T00:38:01.306Z,95428.00
2023-05-05T00:39:01.329Z,95424.00
2023-05-05T00:40:01.333Z,95424.00
2023-05-05T00:41:01.317Z,95426.00
2023-05-05T00:42:01.306Z,95426.00
2023-05-05T00:43:01.324Z,95426.00
2023-05-05T00:44:01.277Z,95426.00
2023-05-05T00:45:01.300Z,95428.00
2023-05-05T00:46:01.290Z,95428.00
2023-05-05T00:47:01.290Z,95430.00
2023-05-05T00:48:01.455Z,95430.00
2023-05-05T00:49:01.276Z,95430.00
2023-05-05T00:50:01.259Z,95428.00
2023-05-05T00:51:01.268Z,95428.00
2023-05-05T00:52:01.269Z,95426.00
2023-05-05T00:53:01.235Z,95426.00
2023-05-05T00:54:01.213Z,95424.00
2023-05-05T00:55:01.220Z,95426.00
2023-05-05T00:56:01.187Z,95426.00
2023-05-05T00:57:01.196Z,95428.00
2023-05-05T00:58:01.258Z,95424.00
2023-05-05T00:59:01.175Z,95422.00
2023-05-05T01:00:01.218Z,95428.00
2023-05-05T01:01:01.160Z,95426.00
2023-05-05T01:02:01.195Z,95428.00
2023-05-05T01:03:01.301Z,95428.00
2023-05-05T01:04:01.220Z,95424.00
2023-05-05T01:05:01.165Z,95424.00
2023-05-05T01:06:01.162Z,95424.00
2023-05-05T01:07:01.167Z,95424.00
2023-05-05T01:08:01.143Z,95424.00
2023-05-05T01:09:01.143Z,95422.00
2023-05-05T01:10:15.669Z,95422.00
2023-05-05T01:11:02.107Z,95420.00
2023-05-05T01:12:01.080Z,95422.00
2023-05-05T01:13:01.144Z,95420.00
2023-05-05T01:14:01.070Z,95420.00
2023-05-05T01:15:01.096Z,95422.00
2023-05-05T01:16:01.091Z,95422.00
2023-05-05T01:17:01.080Z,95420.00
2023-05-05T01:18:01.089Z,95422.00
2023-05-05T01:19:01.073Z,95422.00
2023-05-05T01:20:01.044Z,95424.00
2023-05-05T01:21:01.019Z,95422.00
2023-05-05T01:22:01.054Z,95424.00
2023-05-05T01:23:01.025Z,95420.00
2023-05-05T01:24:01.035Z,95420.00
2023-05-05T01:25:01.020Z,95422.00
2023-05-05T01:26:01.020Z,95424.00
2023-05-05T01:27:00.996Z,95426.00
2023-05-05T01:28:01.018Z,95426.00
2023-05-05T01:29:00.980Z,95428.00
2023-05-05T01:30:01.017Z,95428.00
2023-05-05T01:31:00.997Z,95430.00
2023-05-05T01:32:01.024Z,95428.00
2023-05-05T01:33:00.978Z,95428.00
2023-05-05T01:34:00.931Z,95428.00
2023-05-05T01:35:00.950Z,95426.00
2023-05-05T01:36:01.004Z,95428.00
2023-05-05T01:37:00.957Z,95430.00
2023-05-05T01:38:00.919Z,95432.00
2023-05-05T01:39:00.931Z,95434.00
2023-05-05T01:40:00.950Z,95432.00
2023-05-05T01:41:00.990Z,95432.00
2023-05-05T01:42:01.037Z,95434.00
2023-05-05T01:43:01.016Z,95434.00
2023-05-05T01:44:01.047Z,95432.00
2023-05-05T01:45:01.052Z,95434.00
2023-05-05T01:46:01.104Z,95434.00
2023-05-05T01:47:01.084Z,95434.00
2023-05-05T01:48:01.268Z,95432.00
2023-05-05T01:49:01.110Z,95432.00
2023-05-05T01:50:01.142Z,95434.00
2023-05-05T01:51:01.125Z,95436.00
2023-05-05T01:52:01.127Z,95432.00
2023-05-05T01:53:01.158Z,95430.00
2023-05-05T01:54:01.165Z,95430.00
2023-05-05T01:55:01.175Z,95432.00
2023-05-05T01:56:01.205Z,95428.00
2023-05-05T01:57:01.232Z,95432.00
2023-05-05T01:58:01.249Z,95434.00
2023-05-05T01:59:01.229Z,95436.00
2023-05-05T02:00:01.247Z,95438.00
2023-05-05T02:01:01.247Z,95440.00
2023-05-05T02:02:01.310Z,95438.00
2023-05-05T02:03:01.426Z,95438.00
2023-05-05T02:04:01.273Z,95438.00
2023-05-05T02:05:01.284Z,95434.00
2023-05-05T02:06:01.296Z,95434.00
2023-05-05T02:07:01.314Z,95434.00
2023-05-05T02:08:01.358Z,95438.00
2023-05-05T02:09:01.390Z,95438.00
2023-05-05T02:10:01.378Z,95442.00
2023-05-05T02:11:01.375Z,95444.00
2023-05-05T02:12:01.414Z,95444.00
2023-05-05T02:13:01.518Z,95440.00
2023-05-05T02:14:01.494Z,95444.00
2023-05-05T02:15:01.435Z,95442.00
2023-05-05T02:16:01.467Z,95444.00
2023-05-05T02:17:01.473Z,95442.00
2023-05-05T02:18:01.526Z,95447.00
2023-05-05T02:19:01.489Z,95445.00
2023-05-05T02:20:01.498Z,95447.00
2023-05-05T02:21:01.538Z,95444.00
2023-05-05T02:22:01.557Z,95444.00
2023-05-05T02:23:01.740Z,95447.00
2023-05-05T02:24:01.638Z,95449.00
2023-05-05T02:25:01.637Z,95449.00
2023-05-05T02:26:01.620Z,95447.00
2023-05-05T02:27:01.633Z,95447.00
2023-05-05T02:28:01.651Z,95445.00
2023-05-05T02:29:01.665Z,95447.00
2023-05-05T02:30:01.683Z,95453.00
2023-05-05T02:31:01.742Z,95451.00
2023-05-05T02:32:01.733Z,95449.00
2023-05-05T02:33:01.766Z,95449.00
2023-05-05T02:34:01.717Z,95449.00
2023-05-05T02:35:01.770Z,95447.00
2023-05-05T02:36:01.788Z,95447.00
2023-05-05T02:37:01.787Z,95447.00
2023-05-05T02:38:01.891Z,95447.00
2023-05-05T02:39:01.844Z,95451.00
2023-05-05T02:40:01.847Z,95453.00
2023-05-05T02:41:01.842Z,95455.00
2023-05-05T02:42:01.844Z,95459.00
2023-05-05T02:43:01.955Z,95459.00
2023-05-05T02:44:01.935Z,95457.00
2023-05-05T02:45:01.947Z,95457.00
2023-05-05T02:46:01.981Z,95451.00
2023-05-05T02:47:01.948Z,95451.00
2023-05-05T02:48:02.047Z,95453.00
2023-05-05T02:49:02.001Z,95459.00
2023-05-05T02:50:02.018Z,95461.00
2023-05-05T02:51:02.042Z,95463.00
2023-05-05T02:52:02.048Z,95457.00
2023-05-05T02:53:02.065Z,95457.00
2023-05-05T02:54:02.097Z,95459.00
2023-05-05T02:55:02.133Z,95459.00
2023-05-05T02:56:02.125Z,95457.00
2023-05-05T02:57:02.165Z,95457.00
2023-05-05T02:58:02.199Z,95457.00
2023-05-05T02:59:02.202Z,95455.00
2023-05-05T03:00:02.213Z,95453.00
2023-05-05T03:01:02.222Z,95455.00
2023-05-05T03:02:02.308Z,95455.00
2023-05-05T03:03:02.429Z,95455.00
2023-05-05T03:04:02.326Z,95459.00
2023-05-05T03:05:02.321Z,95461.00
2023-05-05T03:06:02.361Z,95463.00
2023-05-05T03:07:02.336Z,95461.00
2023-05-05T03:08:02.392Z,95461.00
2023-05-05T03:09:02.458Z,95463.00
2023-05-05T03:10:02.388Z,95463.00
2023-05-05T03:11:02.413Z,95461.00
2023-05-05T03:12:02.458Z,95459.00
2023-05-05T03:13:02.489Z,95457.00
2023-05-05T03:14:02.546Z,95455.00
2023-05-05T03:15:02.501Z,95455.00
2023-05-05T03:16:02.546Z,95459.00
2023-05-05T03:17:02.515Z,95457.00
2023-05-05T03:18:02.578Z,95461.00
2023-05-05T03:19:02.516Z,95457.00
2023-05-05T03:20:03.903Z,95461.00
2023-05-05T03:21:02.622Z,95461.00
2023-05-05T03:22:02.569Z,95461.00
2023-05-05T03:23:02.595Z,95459.00
2023-05-05T03:24:02.597Z,95461.00
2023-05-05T03:25:02.610Z,95457.00
2023-05-05T03:26:02.663Z,95459.00
2023-05-05T03:27:02.683Z,95457.00
2023-05-05T03:28:02.729Z,95459.00
2023-05-05T03:29:02.734Z,95455.00
2023-05-05T03:30:02.815Z,95457.00
2023-05-05T03:31:02.811Z,95459.00
2023-05-05T03:32:02.900Z,95459.00
2023-05-05T03:33:02.895Z,95461.00
2023-05-05T03:34:02.779Z,95463.00
2023-05-05T03:35:02.830Z,95461.00
2023-05-05T03:36:02.842Z,95459.00
2023-05-05T03:37:02.892Z,95459.00
2023-05-05T03:38:02.903Z,95461.00
2023-05-05T03:39:02.934Z,95459.00
2023-05-05T03:40:02.933Z,95461.00
2023-05-05T03:41:02.973Z,95459.00
2023-05-05T03:42:02.976Z,95461.00
2023-05-05T03:43:03.003Z,95461.00
2023-05-05T03:44:02.968Z,95463.00
2023-05-05T03:45:03.007Z,95461.00
2023-05-05T03:46:03.030Z,95461.00
2023-05-05T03:47:03.034Z,95459.00
2023-05-05T03:48:03.085Z,95461.00
2023-05-05T03:49:03.078Z,95461.00
2023-05-05T03:50:03.152Z,95461.00
2023-05-05T03:51:03.127Z,95459.00
2023-05-05T03:52:03.125Z,95459.00
2023-05-05T03:53:03.269Z,95459.00
2023-05-05T03:54:03.179Z,95457.00
2023-05-05T03:55:03.197Z,95459.00
2023-05-05T03:56:03.192Z,95457.00
2023-05-05T03:57:03.238Z,95459.00
2023-05-05T03:58:03.258Z,95459.00
2023-05-05T03:59:03.255Z,95457.00
2023-05-05T04:00:03.307Z,95457.00
2023-05-05T04:01:03.297Z,95455.00
2023-05-05T04:02:03.377Z,95455.00
2023-05-05T04:03:03.408Z,95453.00
2023-05-05T04:04:03.421Z,95457.00
2023-05-05T04:05:03.391Z,95455.00
2023-05-05T04:06:03.414Z,95459.00
2023-05-05T04:07:03.415Z,95459.00
2023-05-05T04:08:03.457Z,95457.00
2023-05-05T04:09:03.510Z,95459.00
2023-05-05T04:10:03.487Z,95459.00
2023-05-05T04:11:03.471Z,95461.00
2023-05-05T04:12:03.505Z,95457.00
2023-05-05T04:13:03.548Z,95457.00
2023-05-05T04:14:03.510Z,95459.00
2023-05-05T04:15:03.583Z,95459.00
2023-05-05T04:16:03.648Z,95459.00
2023-05-05T04:17:03.591Z,95459.00
2023-05-05T04:18:03.661Z,95461.00
2023-05-05T04:19:03.630Z,95461.00
2023-05-05T04:20:03.630Z,95463.00
2023-05-05T04:21:03.693Z,95463.00
2023-05-05T04:22:03.723Z,95463.00
2023-05-05T04:23:03.764Z,95463.00
2023-05-05T04:24:03.739Z,95463.00
2023-05-05T04:25:03.747Z,95463.00
2023-05-05T04:26:03.752Z,95463.00
2023-05-05T04:27:03.767Z,95463.00
2023-05-05T04:28:03.829Z,95459.00
2023-05-05T04:29:03.788Z,95465.00
2023-05-05T04:30:03.843Z,95463.00
2023-05-05T04:31:03.897Z,95463.00
2023-05-05T04:32:03.876Z,95465.00
2023-05-05T04:33:03.941Z,95469.00
2023-05-05T04:34:03.915Z,95467.00
2023-05-05T04:35:03.941Z,95467.00
2023-05-05T04:36:03.979Z,95469.00
2023-05-05T04:37:03.964Z,95469.00
2023-05-05T04:38:03.990Z,95471.00
2023-05-05T04:39:04.023Z,95473.00
2023-05-05T04:40:04.000Z,95475.00
2023-05-05T04:41:04.047Z,95473.00
2023-05-05T04:42:04.066Z,95473.00
2023-05-05T04:43:04.114Z,95473.00
2023-05-05T04:44:04.108Z,95473.00
2023-05-05T04:45:04.100Z,95477.00
2023-05-05T04:46:04.203Z,95477.00
2023-05-05T04:47:04.167Z,95479.00
2023-05-05T04:48:04.193Z,95479.00
2023-05-05T04:49:04.209Z,95481.00
2023-05-05T04:50:04.247Z,95479.00
2023-05-05T04:51:04.267Z,95481.00
2023-05-05T04:52:04.303Z,95479.00
2023-05-05T04:53:04.340Z,95481.00
2023-05-05T04:54:04.351Z,95479.00
2023-05-05T04:55:04.377Z,95483.00
2023-05-05T04:56:04.404Z,95485.00
2023-05-05T04:57:04.443Z,95485.00
2023-05-05T04:58:04.435Z,95487.00
2023-05-05T04:59:04.478Z,95487.00
2023-05-05T05:00:04.531Z,95487.00
2023-05-05T05:01:04.517Z,95487.00
2023-05-05T05:02:04.672Z,95487.00
2023-05-05T05:03:04.971Z,95491.00
2023-05-05T05:04:04.727Z,95491.00
2023-05-05T05:05:04.696Z,95489.00
2023-05-05T05:06:04.715Z,95492.00
2023-05-05T05:07:04.755Z,95492.00
2023-05-05T05:08:04.786Z,95492.00
2023-05-05T05:09:04.840Z,95491.00
2023-05-05T05:10:04.862Z,95492.00
2023-05-05T05:11:04.908Z,95494.00
2023-05-05T05:12:04.946Z,95498.00
2023-05-05T05:13:05.040Z,95496.00
2023-05-05T05:14:05.036Z,95496.00
2023-05-05T05:15:05.084Z,95498.00
2023-05-05T05:16:05.127Z,95498.00
2023-05-05T05:17:05.167Z,95496.00
2023-05-05T05:18:05.248Z,95494.00
2023-05-05T05:19:05.236Z,95492.00
2023-05-05T05:20:05.317Z,95494.00
2023-05-05T05:21:05.310Z,95494.00
2023-05-05T05:22:05.357Z,95494.00
2023-05-05T05:23:05.394Z,95494.00
2023-05-05T05:24:05.457Z,95494.00
2023-05-05T05:25:05.492Z,95496.00
2023-05-05T05:26:05.520Z,95494.00
2023-05-05T05:27:06.415Z,95494.00
2023-05-05T05:28:10.685Z,95494.00
2023-05-05T05:29:06.659Z,95496.00
2023-05-05T05:30:05.750Z,95491.00
2023-05-05T05:31:05.591Z,95494.00
2023-05-05T05:32:05.597Z,95494.00
2023-05-05T05:33:05.621Z,95494.00
2023-05-05T05:34:05.591Z,95496.00
2023-05-05T05:35:05.617Z,95498.00
2023-05-05T05:36:05.638Z,95494.00
2023-05-05T05:37:05.576Z,95494.00
2023-05-05T05:38:05.525Z,95491.00
2023-05-05T05:39:05.809Z,95494.00
2023-05-05T05:40:05.660Z,95492.00
2023-05-05T05:41:05.803Z,95496.00
2023-05-05T05:42:05.881Z,95492.00
2023-05-05T05:43:05.780Z,95494.00
2023-05-05T05:44:05.809Z,95500.00
2023-05-05T05:45:05.832Z,95498.00
2023-05-05T05:46:08.910Z,95496.00
2023-05-05T05:47:05.853Z,95494.00
2023-05-05T05:48:05.911Z,95492.00
2023-05-05T05:49:05.847Z,95494.00
2023-05-05T05:50:06.062Z,95496.00
2023-05-05T05:51:05.867Z,95496.00
2023-05-05T05:52:05.847Z,95498.00
2023-05-05T05:53:05.822Z,95498.00
2023-05-05T05:54:05.854Z,95498.00
2023-05-05T05:55:05.829Z,95498.00
2023-05-05T05:56:05.799Z,95498.00
2023-05-05T05:57:05.800Z,95496.00
2023-05-05T05:58:05.801Z,95498.00
2023-05-05T05:59:05.804Z,95498.00
2023-05-05T06:00:05.990Z,95502.00
2023-05-05T06:01:05.787Z,95502.00
2023-05-05T06:02:05.823Z,95500.00
2023-05-05T06:03:05.798Z,95502.00
2023-05-05T06:04:05.908Z,95504.00
2023-05-05T06:05:05.746Z,95504.00
2023-05-05T06:06:05.878Z,95502.00
2023-05-05T06:07:05.723Z,95498.00
2023-05-05T06:08:05.736Z,95496.00
2023-05-05T06:09:05.822Z,95496.00
2023-05-05T06:10:22.913Z,95498.00
2023-05-05T06:11:06.715Z,95494.00
2023-05-05T06:12:05.708Z,95496.00
2023-05-05T06:13:05.717Z,95498.00
2023-05-05T06:14:05.847Z,95496.00
2023-05-05T06:15:05.642Z,95498.00
2023-05-05T06:16:05.665Z,95500.00
2023-05-05T06:17:05.678Z,95496.00
2023-05-05T06:18:05.665Z,95500.00
2023-05-05T06:19:05.637Z,95500.00
2023-05-05T06:20:05.776Z,95494.00
2023-05-05T06:21:05.635Z,95494.00
2023-05-05T06:22:05.626Z,95494.00
2023-05-05T06:23:05.596Z,95492.00
2023-05-05T06:24:05.847Z,95489.00
2023-05-05T06:25:05.621Z,95491.00
2023-05-05T06:26:05.575Z,95491.00
2023-05-05T06:27:05.592Z,95494.00
2023-05-05T06:28:05.679Z,95494.00
2023-05-05T06:29:05.840Z,95491.00
2023-05-05T06:30:05.840Z,95492.00
2023-05-05T06:31:05.723Z,95492.00
2023-05-05T06:32:05.739Z,95491.00
2023-05-05T06:33:05.773Z,95489.00
2023-05-05T06:34:05.827Z,95487.00
2023-05-05T06:35:05.819Z,95487.00
2023-05-05T06:36:05.896Z,95485.00
2023-05-05T06:37:05.897Z,95485.00
2023-05-05T06:38:05.986Z,95483.00
2023-05-05T06:39:06.333Z,95481.00
2023-05-05T06:40:06.131Z,95481.00
2023-05-05T06:41:06.034Z,95479.00
2023-05-05T06:42:06.121Z,95473.00
2023-05-05T06:43:06.149Z,95475.00
2023-05-05T06:44:06.155Z,95473.00
2023-05-05T06:45:06.273Z,95465.00
2023-05-05T06:46:06.243Z,95471.00
2023-05-05T06:47:06.301Z,95471.00
2023-05-05T06:48:06.322Z,95471.00
2023-05-05T06:49:06.323Z,95467.00
2023-05-05T06:50:06.645Z,95467.00
2023-05-05T06:51:06.344Z,95465.00
2023-05-05T06:52:06.354Z,95467.00
2023-05-05T06:53:06.394Z,95469.00
2023-05-05T06:54:06.422Z,95467.00
2023-05-05T06:55:06.442Z,95467.00
2023-05-05T06:56:06.436Z,95471.00
2023-05-05T06:57:06.501Z,95469.00
2023-05-05T06:58:06.535Z,95463.00
2023-05-05T06:59:06.841Z,95469.00
2023-05-05T07:00:06.839Z,95469.00
2023-05-05T07:01:06.781Z,95465.00
2023-05-05T07:02:06.678Z,95467.00
2023-05-05T07:03:06.842Z,95467.00
2023-05-05T07:04:07.119Z,95465.00
2023-05-05T07:05:06.819Z,95465.00
2023-05-05T07:06:06.886Z,95461.00
2023-05-05T07:07:06.896Z,95463.00
2023-05-05T07:08:06.916Z,95459.00
2023-05-05T07:09:06.986Z,95461.00
2023-05-05T07:10:07.180Z,95461.00
2023-05-05T07:11:07.000Z,95459.00
2023-05-05T07:12:07.003Z,95459.00
2023-05-05T07:13:07.075Z,95457.00
2023-05-05T07:14:07.063Z,95455.00
2023-05-05T07:15:19.182Z,95457.00
2023-05-05T07:16:08.068Z,95453.00
2023-05-05T07:17:07.152Z,95455.00
2023-05-05T07:18:07.103Z,95451.00
2023-05-05T07:19:07.068Z,95449.00
2023-05-05T07:20:07.132Z,95449.00
2023-05-05T07:21:06.999Z,95445.00
2023-05-05T07:22:07.015Z,95445.00
2023-05-05T07:23:06.976Z,95444.00
2023-05-05T07:24:07.026Z,95442.00
2023-05-05T07:25:06.960Z,95442.00
2023-05-05T07:26:06.954Z,95440.00
2023-05-05T07:27:06.970Z,95440.00
2023-05-05T07:28:06.983Z,95438.00
2023-05-05T07:29:06.957Z,95440.00
2023-05-05T07:30:11.134Z,95438.00
2023-05-05T07:31:07.955Z,95440.00
2023-05-05T07:32:06.942Z,95438.00
2023-05-05T07:33:07.000Z,95438.00
2023-05-05T07:34:06.916Z,95436.00
2023-05-05T07:35:06.889Z,95432.00
2023-05-05T07:36:06.909Z,95432.00
2023-05-05T07:37:06.917Z,95430.00
2023-05-05T07:38:08.665Z,95430.00
2023-05-05T07:39:06.977Z,95428.00
2023-05-05T07:40:07.203Z,95428.00
2023-05-05T07:41:07.027Z,95428.00
2023-05-05T07:42:07.073Z,95428.00
2023-05-05T07:43:07.085Z,95424.00
2023-05-05T07:44:07.105Z,95428.00
2023-05-05T07:45:07.124Z,95424.00
2023-05-05T07:46:07.183Z,95424.00
2023-05-05T07:47:07.195Z,95422.00
2023-05-05T07:48:07.221Z,95420.00
2023-05-05T07:49:07.305Z,95418.00
2023-05-05T07:50:07.410Z,95412.00
2023-05-05T07:51:07.282Z,95410.00
2023-05-05T07:52:07.274Z,95430.00
2023-05-05T07:53:14.542Z,95408.00
2023-05-05T07:54:08.322Z,95406.00
2023-05-05T07:55:07.304Z,95398.00
2023-05-05T07:56:07.304Z,95406.00
2023-05-05T07:57:07.301Z,95398.00
2023-05-05T07:58:07.278Z,95394.00
2023-05-05T07:59:07.263Z,95394.00
2023-05-05T08:00:07.447Z,95392.00
2023-05-05T08:01:07.248Z,95391.00
2023-05-05T08:02:07.287Z,95392.00
2023-05-05T08:03:09.737Z,95392.00
2023-05-05T08:04:07.463Z,95394.00
2023-05-05T08:05:07.614Z,95392.00
2023-05-05T08:06:07.234Z,95392.00
2023-05-05T08:07:07.226Z,95394.00
2023-05-05T08:08:07.205Z,95392.00
2023-05-05T08:09:07.229Z,95392.00
2023-05-05T08:10:07.212Z,95392.00
2023-05-05T08:11:07.211Z,95389.00
2023-05-05T08:12:07.219Z,95389.00
2023-05-05T08:13:07.201Z,95387.00
2023-05-05T08:14:07.357Z,95391.00
2023-05-05T08:15:07.402Z,95391.00
2023-05-05T08:16:07.208Z,95387.00
2023-05-05T08:17:07.193Z,95387.00
2023-05-05T08:18:07.242Z,95385.00
2023-05-05T08:19:17.600Z,95381.00
2023-05-05T08:20:08.130Z,95375.00
2023-05-05T08:21:07.218Z,95377.00
2023-05-05T08:22:07.122Z,95375.00
2023-05-05T08:23:07.110Z,95373.00
2023-05-05T08:24:07.410Z,95373.00
2023-05-05T08:25:07.229Z,95373.00
2023-05-05T08:26:07.103Z,95371.00
2023-05-05T08:27:07.129Z,95369.00
2023-05-05T08:28:07.065Z,95371.00
2023-05-05T08:29:07.389Z,95369.00
2023-05-05T08:30:07.071Z,95367.00
2023-05-05T08:31:07.121Z,95371.00
2023-05-05T08:32:07.073Z,95367.00
2023-05-05T08:33:07.048Z,95367.00
2023-05-05T08:34:07.411Z,95361.00
2023-05-05T08:35:07.573Z,95361.00
2023-05-05T08:36:07.020Z,95357.00
2023-05-05T08:37:07.085Z,95357.00
2023-05-05T08:38:07.034Z,95357.00
2023-05-05T08:39:08.024Z,95351.00
2023-05-05T08:40:07.010Z,95351.00
2023-05-05T08:41:07.008Z,95347.00
2023-05-05T08:42:07.181Z,95345.00
2023-05-05T08:43:06.997Z,95344.00
2023-05-05T08:44:07.012Z,95345.00
2023-05-05T08:45:07.169Z,95344.00
2023-05-05T08:46:06.962Z,95342.00
2023-05-05T08:47:06.996Z,95342.00
2023-05-05T08:48:06.991Z,95336.00
2023-05-05T08:49:06.969Z,95338.00
2023-05-05T08:50:06.918Z,95336.00
2023-05-05T08:51:06.985Z,95338.00
2023-05-05T08:52:06.919Z,95332.00
2023-05-05T08:53:06.921Z,95336.00
2023-05-05T08:54:07.394Z,95330.00
2023-05-05T08:55:07.072Z,95332.00
2023-05-05T08:56:06.915Z,95332.00
2023-05-05T08:57:06.919Z,95330.00
2023-05-05T08:58:06.917Z,95332.00
2023-05-05T08:59:06.940Z,95328.00
2023-05-05T09:00:06.936Z,95330.00
2023-05-05T09:01:07.031Z,95328.00
2023-05-05T09:02:07.009Z,95322.00
2023-05-05T09:03:07.329Z,95322.00
2023-05-05T09:04:07.038Z,95322.00
2023-05-05T09:05:07.270Z,95318.00
2023-05-05T09:06:07.047Z,95318.00
2023-05-05T09:07:07.096Z,95316.00
2023-05-05T09:08:07.115Z,95314.00
2023-05-05T09:09:07.228Z,95314.00
2023-05-05T09:10:07.141Z,95316.00
2023-05-05T09:11:07.140Z,95312.00
2023-05-05T09:12:07.156Z,95314.00
2023-05-05T09:13:07.229Z,95312.00
2023-05-05T09:14:07.228Z,95310.00
2023-05-05T09:15:07.378Z,95310.00
2023-05-05T09:16:07.222Z,95308.00
2023-05-05T09:17:07.360Z,95302.00
2023-05-05T09:18:07.296Z,95304.00
2023-05-05T09:19:07.408Z,95300.00
2023-05-05T09:20:07.412Z,95298.00
2023-05-05T09:21:07.322Z,95296.00
2023-05-05T09:22:07.339Z,95298.00
2023-05-05T09:23:07.364Z,95294.00
2023-05-05T09:24:08.548Z,95294.00
2023-05-05T09:25:07.758Z,95294.00
2023-05-05T09:26:07.423Z,95294.00
2023-05-05T09:27:07.439Z,95289.00
2023-05-05T09:28:07.452Z,95289.00
2023-05-05T09:29:07.446Z,95287.00
2023-05-05T09:30:07.899Z,95285.00
2023-05-05T09:31:07.551Z,95283.00
2023-05-05T09:32:07.512Z,95279.00
2023-05-05T09:33:07.557Z,95281.00
2023-05-05T09:34:07.515Z,95279.00
2023-05-05T09:35:08.037Z,95275.00
2023-05-05T09:36:07.551Z,95275.00
2023-05-05T09:37:07.548Z,95273.00
2023-05-05T09:38:07.554Z,95271.00
2023-05-05T09:39:07.664Z,95267.00
2023-05-05T09:40:07.657Z,95267.00
2023-05-05T09:41:07.687Z,95269.00
2023-05-05T09:42:07.808Z,95265.00
2023-05-05T09:43:07.811Z,95265.00
2023-05-05T09:44:07.856Z,95259.00
2023-05-05T09:45:08.019Z,95261.00
2023-05-05T09:46:08.046Z,95263.00
2023-05-05T09:47:22.017Z,95261.00
2023-05-05T09:48:08.975Z,95259.00
2023-05-05T09:49:07.980Z,95257.00
2023-05-05T09:50:08.628Z,95253.00
2023-05-05T09:51:07.965Z,95257.00
2023-05-05T09:52:07.957Z,95255.00
2023-05-05T09:53:07.975Z,95253.00
2023-05-05T09:54:07.954Z,95253.00
2023-05-05T09:55:08.443Z,95249.00
2023-05-05T09:56:07.939Z,95249.00
2023-05-05T09:57:07.993Z,95249.00
2023-05-05T09:58:07.928Z,95247.00
2023-05-05T09:59:07.913Z,95247.00
2023-05-05T10:00:08.229Z,95247.00
2023-05-05T10:01:07.947Z,95246.00
2023-05-05T10:02:07.886Z,95244.00
2023-05-05T10:03:07.969Z,95246.00
2023-05-05T10:04:07.888Z,95242.00
2023-05-05T10:05:07.980Z,95240.00
2023-05-05T10:06:07.922Z,95244.00
2023-05-05T10:07:07.887Z,95238.00
2023-05-05T10:08:07.941Z,95240.00
2023-05-05T10:09:07.924Z,95238.00
2023-05-05T10:10:08.821Z,95238.00
2023-05-05T10:11:07.958Z,95234.00
2023-05-05T10:12:08.003Z,95232.00
2023-05-05T10:13:08.140Z,95230.00
2023-05-05T10:14:08.041Z,95228.00
2023-05-05T10:15:08.406Z,95228.00
2023-05-05T10:16:08.142Z,95224.00
2023-05-05T10:17:08.131Z,95226.00
2023-05-05T10:18:08.690Z,95222.00
2023-05-05T10:19:08.168Z,95224.00
2023-05-05T10:20:08.415Z,95218.00
2023-05-05T10:21:08.235Z,95216.00
2023-05-05T10:22:08.331Z,95214.00
2023-05-05T10:23:08.386Z,95214.00
2023-05-05T10:24:08.335Z,95212.00
2023-05-05T10:25:08.409Z,95212.00
2023-05-05T10:26:08.441Z,95212.00
2023-05-05T10:27:08.469Z,95210.00
2023-05-05T10:28:08.509Z,95206.00
2023-05-05T10:29:08.623Z,95206.00
2023-05-05T10:30:09.117Z,95202.00
2023-05-05T10:31:20.450Z,95198.00
2023-05-05T10:32:33.500Z,95198.00
2023-05-05T10:34:08.769Z,95193.00
2023-05-05T10:35:08.943Z,95191.00
2023-05-05T10:36:08.582Z,95191.00
2023-05-05T10:37:08.556Z,95189.00
2023-05-05T10:38:08.573Z,95187.00
2023-05-05T10:39:08.538Z,95183.00
2023-05-05T10:40:09.097Z,95183.00
2023-05-05T10:41:08.512Z,95179.00
2023-05-05T10:42:08.539Z,95179.00
2023-05-05T10:43:08.509Z,95175.00
2023-05-05T10:44:08.513Z,95173.00
2023-05-05T10:45:09.066Z,95175.00
2023-05-05T10:46:08.579Z,95171.00
2023-05-05T10:47:08.619Z,95167.00
2023-05-05T10:48:08.672Z,95167.00
2023-05-05T10:49:10.057Z,95167.00
2023-05-05T10:50:09.194Z,95167.00
2023-05-05T10:51:08.686Z,95165.00
2023-05-05T10:52:08.688Z,95163.00
2023-05-05T10:53:08.710Z,95161.00
2023-05-05T10:54:08.715Z,95157.00
2023-05-05T10:55:08.927Z,95159.00
2023-05-05T10:56:08.655Z,95155.00
2023-05-05T10:57:08.659Z,95151.00
2023-05-05T10:58:08.629Z,95151.00
2023-05-05T10:59:08.641Z,95151.00
2023-05-05T11:00:09.151Z,95149.00
2023-05-05T11:01:08.681Z,95149.00
2023-05-05T11:02:08.606Z,95142.00
2023-05-05T11:03:08.712Z,95140.00
2023-05-05T11:04:08.675Z,95136.00
2023-05-05T11:05:08.949Z,95136.00
2023-05-05T11:06:08.581Z,95136.00
2023-05-05T11:07:10.481Z,95132.00
2023-05-05T11:08:09.571Z,95132.00
2023-05-05T11:09:08.578Z,95128.00
2023-05-05T11:10:09.181Z,95126.00
2023-05-05T11:11:08.545Z,95124.00
2023-05-05T11:12:08.569Z,95120.00
2023-05-05T11:13:08.634Z,95120.00
2023-05-05T11:14:08.503Z,95114.00
2023-05-05T11:15:08.933Z,95112.00
2023-05-05T11:16:08.569Z,95116.00
2023-05-05T11:17:08.605Z,95112.00
2023-05-05T11:18:08.911Z,95110.00
2023-05-05T11:19:08.580Z,95104.00
2023-05-05T11:20:09.329Z,95106.00
2023-05-05T11:21:08.682Z,95106.00
2023-05-05T11:22:08.765Z,95098.00
2023-05-05T11:23:08.796Z,95096.00
2023-05-05T11:24:08.805Z,95093.00
2023-05-05T11:25:08.953Z,95091.00
2023-05-05T11:26:08.938Z,95089.00
2023-05-05T11:27:08.948Z,95089.00
2023-05-05T11:28:08.994Z,95089.00
2023-05-05T11:29:09.038Z,95089.00
2023-05-05T11:30:09.428Z,95089.00
2023-05-05T11:31:09.175Z,95085.00
2023-05-05T11:32:09.175Z,95083.00
2023-05-05T11:33:09.281Z,95079.00
2023-05-05T11:34:09.340Z,95079.00
2023-05-05T11:35:09.449Z,95077.00
2023-05-05T11:36:09.353Z,95077.00
2023-05-05T11:37:09.401Z,95075.00
2023-05-05T11:38:09.444Z,95075.00
2023-05-05T11:39:09.474Z,95073.00
2023-05-05T11:40:09.868Z,95075.00
2023-05-05T11:41:09.554Z,95071.00
2023-05-05T11:42:11.000Z,95067.00
2023-05-05T11:43:09.625Z,95065.00
2023-05-05T11:44:09.708Z,95063.00
2023-05-05T11:45:09.722Z,95061.00